Aeroporto :
LOGIN :

Iscrizione | Disclaimer

   EN    FR    IT 

 










Sommario :    VFR   VFR Marginale   IFR   IFR Intensivo   IFR Molto Intensivo
Visibilità : 
Base nubi : 
>= 8 km
>= 3000ft
5 / 8 km
1000 / 3000 ft
1500m / 5 km
500 / 1000 ft
800 / 1500m
200 / 500 ft
< 800m
< 200 ft
Simboli :   Temporali  Nebbia  Neve Forte  Precipitazioni Forti  Vento > 20 kt
SIGMETs :   Varie  Temporali  Ghiacco  Turbolenza  Onda orograficha  Ceneri Vulcaniche






- Altitudine del aeroporto : 302 ft
- Codice IATA : MAH


LEMH - Menorca

ULTIMO METAR :
  • 020600Z 23010KT 200V270 9999 FEW016 13/10 Q1010

METARs OBSOLETI :
  • 020530Z 24009KT 200V290 9999 SCT013 13/11 Q1010
  • 020500Z 24011KT 200V280 9999 SCT012 13/11 Q1010
  • 020430Z AUTO 24011KT 200V280 9999 SCT012/// BKN014/// 13/11 Q1011
  • 012100Z 26005KT 230V290 CAVOK 11/06 Q1013
  • 020400Z AUTO 24011KT 190V270 9999 SCT012/// BKN014/// BKN020/// 13/11 Q1011
  • 020330Z AUTO 24009KT 210V280 9999 SCT014/// BKN016/// 13/11 Q1011
  • 020300Z AUTO 25006KT 220V280 9999 FEW016/// 12/10 Q1011
  • 020230Z AUTO 24009KT 210V280 CAVOK 13/09 Q1011
  • 020200Z AUTO 24011KT 200V270 CAVOK 13/08 Q1012
  • 020130Z AUTO 24012KT 210V280 CAVOK 13/08 Q1012
  • 020100Z AUTO 24012KT 170V270 CAVOK 13/07 Q1012

TAF TAF LEMH
Valido dal 02 a 03 ore il 03 a 03 ore UTC


020200Z 0203/0303 23009KT CAVOK TX15/0213Z TN09/0206Z
BECMG 0208/0210 21015KT
TEMPO 0211/0303 21020G30KT



MetMap, La meteo Aeronautica in un colpo d'occhio ! - Copyright ORBIFLY Dicembre 2007 - Disclaimer

ORBIFLY MET'MAP TEAM :

Programmazione e sviluppo : Alexandra Zaïnal
Concezione : Baudouin d'Aumeries
Supporto tecnico e logistico : Manuel Goepfert
Aiuto : Marc-Olivier Méhu
Aiuto per la traduzione : Arnaldo La Scala




FONTI E CREDITI :

   NOAA